createdAt,value
2023-04-25T00:03:26.497Z,70.10
2023-04-25T00:07:09.388Z,70.22
2023-04-25T00:10:52.085Z,70.18
2023-04-25T00:14:36.442Z,70.07
2023-04-25T00:18:19.974Z,69.89
2023-04-25T00:22:02.843Z,69.58
2023-04-25T00:25:45.769Z,69.67
2023-04-25T00:29:28.409Z,69.98
2023-04-25T00:33:12.508Z,69.53
2023-04-25T00:36:55.200Z,69.72
2023-04-25T00:40:37.920Z,69.55
2023-04-25T00:44:21.011Z,69.75
2023-04-25T00:48:04.491Z,69.81
2023-04-25T00:51:48.560Z,69.29
2023-04-25T00:55:32.382Z,69.41
2023-04-25T00:59:16.110Z,69.29
2023-04-25T01:02:58.921Z,69.40
2023-04-25T01:06:42.143Z,69.77
2023-04-25T01:10:26.176Z,69.30
2023-04-25T01:14:08.885Z,69.77
2023-04-25T01:17:51.702Z,69.95
2023-04-25T01:21:35.823Z,69.90
2023-04-25T01:25:18.860Z,70.48
2023-04-25T01:29:01.834Z,70.27
2023-04-25T01:32:45.424Z,70.66
2023-04-25T01:36:28.581Z,70.29
2023-04-25T01:40:13.753Z,70.27
2023-04-25T01:43:56.603Z,70.70
2023-04-25T01:47:40.471Z,70.29
2023-04-25T01:51:23.191Z,70.27
2023-04-25T01:55:06.518Z,70.61
2023-04-25T01:58:53.306Z,70.40
2023-04-25T02:02:36.454Z,70.33
2023-04-25T02:06:19.221Z,70.12
2023-04-25T02:10:02.129Z,70.47
2023-04-25T02:13:44.776Z,70.53
2023-04-25T02:17:28.817Z,70.58
2023-04-25T02:21:12.456Z,70.88
2023-04-25T02:24:56.008Z,71.00
2023-04-25T02:28:38.627Z,70.78
2023-04-25T02:32:21.493Z,70.55
2023-04-25T02:36:06.199Z,70.75
2023-04-25T02:39:48.840Z,70.68
2023-04-25T02:43:31.543Z,70.52
2023-04-25T02:47:14.490Z,70.30
2023-04-25T02:50:57.175Z,69.95
2023-04-25T02:54:41.996Z,69.82
2023-04-25T02:58:25.032Z,69.74
2023-04-25T03:02:07.697Z,69.39
2023-04-25T03:05:51.465Z,69.02
2023-04-25T03:09:34.150Z,68.48
2023-04-25T03:13:18.227Z,68.19
2023-04-25T03:17:00.909Z,68.70
2023-04-25T03:20:46.255Z,69.52
2023-04-25T03:24:29.173Z,69.98
2023-04-25T03:28:11.862Z,70.25
2023-04-25T03:31:56.014Z,71.04
2023-04-25T03:35:38.675Z,71.29
2023-04-25T03:39:21.300Z,71.54
2023-04-25T03:43:03.978Z,71.93
2023-04-25T03:46:46.594Z,71.98
2023-04-25T03:50:30.870Z,71.87
2023-04-25T03:54:13.598Z,72.09
2023-04-25T03:57:56.280Z,72.80
2023-04-25T04:01:38.930Z,72.91
2023-04-25T04:05:21.721Z,72.90
2023-04-25T04:09:06.167Z,72.77
2023-04-25T04:12:48.838Z,72.94
2023-04-25T04:16:33.232Z,73.16
2023-04-25T04:20:17.225Z,73.73
2023-04-25T04:24:01.017Z,73.30
2023-04-25T04:27:45.680Z,73.51
2023-04-25T04:31:28.594Z,73.66
2023-04-25T04:35:12.178Z,74.25
2023-04-25T04:38:54.968Z,74.09
2023-04-25T04:42:40.519Z,74.04
2023-04-25T04:46:25.612Z,74.30
2023-04-25T04:50:09.515Z,74.54
2023-04-25T04:53:52.597Z,74.73
2023-04-25T04:57:36.200Z,74.84
2023-04-25T05:01:19.140Z,74.56
2023-04-25T05:05:03.184Z,74.81
2023-04-25T05:08:45.841Z,74.61
2023-04-25T05:12:28.547Z,73.98
2023-04-25T05:16:11.293Z,73.95
2023-04-25T05:19:53.980Z,74.47
2023-04-25T05:23:37.967Z,74.22
2023-04-25T05:27:21.008Z,74.60
2023-04-25T05:31:04.038Z,73.97
2023-04-25T05:34:46.709Z,73.65
2023-04-25T05:38:29.523Z,73.97
2023-04-25T05:42:13.529Z,73.62
2023-04-25T05:45:56.263Z,73.75
2023-04-25T05:49:38.970Z,73.72
2023-04-25T05:53:21.611Z,73.63
2023-04-25T05:57:04.645Z,74.22
2023-04-25T06:00:48.758Z,76.28
2023-04-25T06:04:31.567Z,77.54
2023-04-25T06:08:14.533Z,80.50
2023-04-25T06:11:57.163Z,81.91
2023-04-25T06:15:39.889Z,84.08
2023-04-25T06:19:24.001Z,85.45
2023-04-25T06:23:06.635Z,86.47
2023-04-25T06:26:49.293Z,87.95
2023-04-25T06:30:31.996Z,87.14
2023-04-25T06:34:14.683Z,86.41
2023-04-25T06:37:58.717Z,86.07
2023-04-25T06:41:41.788Z,86.27
2023-04-25T06:45:24.412Z,85.91
2023-04-25T06:49:07.266Z,85.18
2023-04-25T06:52:52.661Z,85.01
2023-04-25T06:56:36.714Z,85.89
2023-04-25T07:00:20.397Z,86.47
2023-04-25T07:04:03.251Z,86.34
2023-04-25T07:07:48.756Z,84.98
2023-04-25T07:11:32.679Z,83.37
2023-04-25T07:15:16.809Z,82.98
2023-04-25T07:19:00.467Z,82.92
2023-04-25T07:22:43.079Z,82.83
2023-04-25T07:26:28.716Z,81.01
2023-04-25T07:30:12.021Z,80.08
2023-04-25T07:33:55.985Z,79.77
2023-04-25T07:37:38.921Z,79.91
2023-04-25T07:41:21.549Z,79.06
2023-04-25T07:45:04.764Z,78.82
2023-04-25T07:48:47.449Z,78.15
2023-04-25T07:52:31.525Z,78.89
2023-04-25T07:56:14.215Z,76.86
2023-04-25T07:59:56.840Z,76.31
2023-04-25T08:03:39.658Z,74.80
2023-04-25T08:07:22.503Z,73.66
2023-04-25T08:11:06.537Z,72.77
2023-04-25T08:14:49.130Z,71.40
2023-04-25T08:18:34.813Z,70.08
2023-04-25T08:22:17.538Z,70.11
2023-04-25T08:26:00.331Z,68.78
2023-04-25T08:29:44.864Z,67.77
2023-04-25T08:33:27.726Z,66.98
2023-04-25T08:37:10.920Z,68.27
2023-04-25T08:40:53.989Z,69.46
2023-04-25T08:44:37.024Z,67.12
2023-04-25T08:48:21.057Z,64.58
2023-04-25T08:52:07.348Z,63.74
2023-04-25T08:55:50.789Z,62.82
2023-04-25T08:59:35.623Z,60.27
2023-04-25T09:03:21.706Z,61.52
2023-04-25T09:07:04.540Z,58.51
2023-04-25T09:10:47.217Z,57.46
2023-04-25T09:14:29.915Z,57.40
2023-04-25T09:18:12.718Z,57.80
2023-04-25T09:21:57.942Z,56.38
2023-04-25T09:25:40.644Z,55.26
2023-04-25T09:29:31.360Z,55.40
2023-04-25T09:33:14.533Z,52.21
2023-04-25T09:36:58.541Z,52.73
2023-04-25T09:40:43.875Z,52.55
2023-04-25T09:44:28.993Z,53.28
2023-04-25T09:48:11.681Z,52.26
2023-04-25T09:51:58.870Z,50.69
2023-04-25T09:55:42.089Z,50.64
2023-04-25T09:59:25.115Z,52.39
2023-04-25T10:03:08.505Z,53.64
2023-04-25T10:06:53.265Z,53.97
2023-04-25T10:10:40.877Z,54.01
2023-04-25T10:14:24.794Z,52.75
2023-04-25T10:18:08.462Z,53.63
2023-04-25T10:21:54.526Z,51.81
2023-04-25T10:25:38.555Z,52.08
2023-04-25T10:29:25.274Z,51.70
2023-04-25T10:33:18.722Z,52.80
2023-04-25T10:37:04.519Z,52.26
2023-04-25T10:41:04.753Z,53.26
2023-04-25T10:45:04.396Z,54.32
2023-04-25T10:48:49.388Z,56.97
2023-04-25T10:52:32.186Z,56.69
2023-04-25T10:56:22.172Z,59.37
2023-04-25T11:00:10.634Z,61.38
2023-04-25T11:03:59.798Z,61.02
2023-04-25T11:07:59.846Z,60.97
2023-04-25T11:11:55.868Z,60.85
2023-04-25T11:15:39.308Z,57.70
2023-04-25T11:19:24.053Z,56.11
2023-04-25T11:23:06.689Z,54.75
2023-04-25T11:26:49.632Z,55.09
2023-04-25T11:30:33.626Z,56.57
2023-04-25T11:34:19.419Z,57.81
2023-04-25T11:38:02.141Z,58.84
2023-04-25T11:41:46.005Z,61.07
2023-04-25T11:45:28.769Z,62.83
2023-04-25T11:49:13.151Z,65.89
2023-04-25T11:52:58.655Z,68.09
2023-04-25T11:56:43.206Z,69.17
2023-04-25T12:00:29.845Z,69.59
2023-04-25T12:04:15.591Z,69.08
2023-04-25T12:07:58.740Z,69.31
2023-04-25T12:11:44.891Z,69.29
2023-04-25T12:15:27.732Z,69.93
2023-04-25T12:19:10.650Z,70.50
2023-04-25T12:22:55.128Z,69.86
2023-04-25T12:26:51.827Z,71.13
2023-04-25T12:30:54.503Z,71.36
2023-04-25T12:34:37.408Z,70.32
2023-04-25T12:38:25.572Z,71.05
2023-04-25T12:42:10.190Z,72.04
2023-04-25T12:45:54.068Z,72.31
2023-04-25T12:49:36.783Z,72.69
2023-04-25T12:53:20.151Z,76.30
2023-04-25T12:57:04.426Z,72.73
2023-04-25T13:00:47.765Z,72.63
2023-04-25T13:04:30.780Z,72.61
2023-04-25T13:08:13.604Z,72.39
2023-04-25T13:11:58.363Z,75.56
2023-04-25T13:15:43.334Z,75.38
2023-04-25T13:19:26.638Z,75.91
2023-04-25T13:23:09.365Z,76.43
2023-04-25T13:26:52.123Z,74.00
2023-04-25T13:30:35.165Z,74.62
2023-04-25T13:34:19.171Z,76.22
2023-04-25T13:38:02.165Z,75.68
2023-04-25T13:41:44.872Z,77.17
2023-04-25T13:45:27.628Z,78.42
2023-04-25T13:49:13.329Z,76.27
2023-04-25T13:52:57.854Z,76.07
2023-04-25T13:56:43.006Z,75.11
2023-04-25T14:00:25.864Z,77.75
2023-04-25T14:04:08.510Z,80.82
2023-04-25T14:07:51.411Z,80.48
2023-04-25T14:11:35.469Z,82.01
2023-04-25T14:15:18.142Z,83.15
2023-04-25T14:19:01.303Z,81.47
2023-04-25T14:22:46.059Z,79.81
2023-04-25T14:26:28.677Z,80.23
2023-04-25T14:30:13.737Z,77.57
2023-04-25T14:33:59.119Z,77.71
2023-04-25T14:37:42.362Z,73.93
2023-04-25T14:41:25.099Z,72.77
2023-04-25T14:45:09.422Z,73.77
2023-04-25T14:48:53.707Z,72.44
2023-04-25T14:52:39.514Z,71.30
2023-04-25T14:56:22.142Z,72.93
2023-04-25T15:00:06.387Z,73.40
2023-04-25T15:03:49.311Z,71.89
2023-04-25T15:07:34.621Z,72.21
2023-04-25T15:11:17.286Z,73.14
2023-04-25T15:15:00.255Z,73.68
2023-04-25T15:18:42.919Z,72.69
2023-04-25T15:22:27.819Z,72.96
2023-04-25T15:26:12.032Z,73.29
2023-04-25T15:29:54.951Z,71.75
2023-04-25T15:33:38.202Z,70.30
2023-04-25T15:37:20.808Z,68.79
2023-04-25T15:41:04.759Z,69.53
2023-04-25T15:44:49.394Z,69.73
2023-04-25T15:48:32.541Z,70.52
2023-04-25T15:52:15.196Z,72.62
2023-04-25T15:55:57.777Z,72.21
2023-04-25T15:59:40.704Z,72.39
2023-04-25T16:03:24.819Z,74.05
2023-04-25T16:07:10.576Z,71.58
2023-04-25T16:10:53.221Z,71.99
2023-04-25T16:14:35.922Z,72.61
2023-04-25T16:18:18.606Z,73.65
2023-04-25T16:22:02.794Z,74.27
2023-04-25T16:25:45.854Z,74.67
2023-04-25T16:29:31.212Z,74.64
2023-04-25T16:33:13.862Z,75.41
2023-04-25T16:36:57.239Z,77.04
2023-04-25T16:40:41.317Z,76.32
2023-04-25T16:44:24.229Z,76.76
2023-04-25T16:48:07.144Z,75.72
2023-04-25T16:51:50.183Z,75.86
2023-04-25T16:55:32.830Z,76.05
2023-04-25T16:59:16.848Z,76.30
2023-04-25T17:02:59.622Z,76.08
2023-04-25T17:06:42.312Z,76.49
2023-04-25T17:10:25.033Z,77.01
2023-04-25T17:14:09.821Z,77.31
2023-04-25T17:17:55.617Z,77.51
2023-04-25T17:21:38.274Z,77.80
2023-04-25T17:25:21.118Z,77.48
2023-04-25T17:29:04.228Z,77.60
2023-04-25T17:32:46.914Z,77.40
2023-04-25T17:36:30.977Z,77.81
2023-04-25T17:40:14.172Z,77.50
2023-04-25T17:43:56.815Z,76.86
2023-04-25T17:47:39.739Z,76.26
2023-04-25T17:51:22.420Z,76.57
2023-04-25T17:55:07.446Z,76.37
2023-04-25T17:58:50.337Z,76.14
2023-04-25T18:02:33.302Z,77.22
2023-04-25T18:06:16.607Z,77.44
2023-04-25T18:09:59.211Z,76.96
2023-04-25T18:13:43.219Z,76.34
2023-04-25T18:17:26.085Z,74.14
2023-04-25T18:21:09.258Z,74.68
2023-04-25T18:24:52.024Z,76.15
2023-04-25T18:28:37.211Z,78.63
2023-04-25T18:32:21.579Z,81.20
2023-04-25T18:36:04.464Z,82.81
2023-04-25T18:39:47.232Z,83.73
2023-04-25T18:43:31.319Z,86.33
2023-04-25T18:47:14.134Z,86.99
2023-04-25T18:50:58.165Z,85.86
2023-04-25T18:54:40.976Z,85.72
2023-04-25T18:58:23.664Z,85.04
2023-04-25T19:02:06.589Z,85.80
2023-04-25T19:05:49.216Z,86.20
2023-04-25T19:09:33.180Z,87.11
2023-04-25T19:13:15.766Z,87.25
2023-04-25T19:16:59.380Z,87.06
2023-04-25T19:20:42.390Z,87.49
2023-04-25T19:24:24.990Z,88.17
2023-04-25T19:28:11.741Z,88.59
2023-04-25T19:31:54.578Z,88.12
2023-04-25T19:35:37.264Z,88.64
2023-04-25T19:39:19.962Z,89.23
2023-04-25T19:43:02.589Z,89.60
2023-04-25T19:46:47.138Z,89.81
2023-04-25T19:50:29.912Z,90.48
2023-04-25T19:54:12.661Z,90.11
2023-04-25T19:57:55.314Z,90.35
2023-04-25T20:01:37.977Z,89.76
2023-04-25T20:05:21.988Z,88.57
2023-04-25T20:09:06.256Z,89.41
2023-04-25T20:12:51.791Z,89.67
2023-04-25T20:16:34.472Z,89.00
2023-04-25T20:20:17.471Z,88.96
2023-04-25T20:24:02.171Z,89.29
2023-04-25T20:27:45.287Z,88.58
2023-04-25T20:31:27.962Z,89.16
2023-04-25T20:35:11.021Z,89.40
2023-04-25T20:38:53.938Z,89.58
2023-04-25T20:42:38.875Z,89.10
2023-04-25T20:46:36.393Z,90.72
2023-04-25T20:50:19.101Z,91.92
2023-04-25T20:54:03.751Z,91.58
2023-04-25T20:57:47.786Z,91.30
2023-04-25T21:01:30.496Z,91.10
2023-04-25T21:05:13.238Z,91.00
2023-04-25T21:08:58.174Z,91.07
2023-04-25T21:12:47.567Z,90.92
2023-04-25T21:16:35.199Z,90.69
2023-04-25T21:20:20.264Z,90.72
2023-04-25T21:24:02.944Z,91.15
2023-04-25T21:27:46.408Z,90.03
2023-04-25T21:31:36.393Z,90.22
2023-04-25T21:35:20.044Z,88.25
2023-04-25T21:39:05.454Z,88.48
2023-04-25T21:42:54.088Z,89.30
2023-04-25T21:46:38.555Z,90.08
2023-04-25T21:50:21.360Z,90.48
2023-04-25T21:54:05.894Z,90.40
2023-04-25T21:57:48.530Z,90.11
2023-04-25T22:01:31.339Z,90.03
2023-04-25T22:05:15.481Z,89.92
2023-04-25T22:08:58.241Z,89.12
2023-04-25T22:12:40.955Z,89.17
2023-04-25T22:16:23.628Z,89.83
2023-04-25T22:20:11.909Z,90.44
2023-04-25T22:23:56.690Z,89.06
2023-04-25T22:27:40.887Z,88.77
2023-04-25T22:31:26.390Z,89.82
2023-04-25T22:35:10.367Z,89.76
2023-04-25T22:38:53.906Z,88.72
2023-04-25T22:42:42.165Z,88.99
2023-04-25T22:46:25.026Z,89.92
2023-04-25T22:50:13.317Z,89.69
2023-04-25T22:53:56.388Z,90.68
2023-04-25T22:57:39.468Z,90.85
2023-04-25T23:01:23.591Z,91.78
2023-04-25T23:05:07.337Z,90.58
2023-04-25T23:08:50.373Z,91.11
2023-04-25T23:12:33.482Z,91.73
2023-04-25T23:16:16.364Z,91.66
2023-04-25T23:20:00.418Z,91.32
2023-04-25T23:23:43.600Z,91.57
2023-04-25T23:27:26.373Z,90.07
2023-04-25T23:31:10.253Z,87.32
2023-04-25T23:34:53.039Z,87.50
2023-04-25T23:38:37.845Z,86.26
2023-04-25T23:42:20.471Z,85.56
2023-04-25T23:46:03.282Z,87.25
2023-04-25T23:49:46.171Z,88.67
2023-04-25T23:53:28.808Z,89.76
2023-04-25T23:57:13.400Z,90.35
